Time;durP1;ratioP1;P1;durP2;ratioP2;P2;SDS_P1;SDS_P2;PMS_P1;PMS_P2;Temp;Humidity;BMP_temperature;BMP_pressure;BME280_temperature;BME280_humidity;BME280_pressure;Samples;Min_cycle;Max_cycle;Signal;HPM_P1;HPM_P2
2023/12/10 00:00:14;;;;;;;59.75;30.60;;;;;;;;;;1050640;28;20040;-69
2023/12/10 00:01:05;;;;;;;63.13;29.25;;;;;;;;;;1048690;28;20519;-68
2023/12/10 00:01:55;;;;;;;64.43;29.65;;;;;;;;;;1048450;28;20070;-68
2023/12/10 00:02:26;;;;;;;59.85;28.88;;;;;;;;;;1050251;28;20538;-68
2023/12/10 00:02:56;;;;;;;64.30;30.45;;;;;;;;;;1049848;28;20055;-68
2023/12/10 00:03:27;;;;;;;60.05;30.17;;;;;;;;;;1050009;28;20766;-68
2023/12/10 00:03:57;;;;;;;67.78;30.35;;;;;;;;;;1050543;28;20043;-68
2023/12/10 00:04:28;;;;;;;60.90;30.38;;;;;;;;;;1049428;28;20055;-69
2023/12/10 00:04:58;;;;;;;64.90;30.00;;;;;;;;;;1050677;28;20040;-68
2023/12/10 00:05:29;;;;;;;64.10;31.17;;;;;;;;;;1049067;28;20058;-68
2023/12/10 00:05:59;;;;;;;66.40;32.47;;;;;;;;;;1049840;28;20040;-68
2023/12/10 00:06:30;;;;;;;68.22;30.55;;;;;;;;;;1050248;28;20175;-69
2023/12/10 00:07:01;;;;;;;64.72;30.67;;;;;;;;;;1050040;28;20036;-68
2023/12/10 00:07:32;;;;;;;68.75;32.08;;;;;;;;;;1047893;28;20472;-68
2023/12/10 00:08:02;;;;;;;64.38;31.88;;;;;;;;;;1050359;28;20558;-68
2023/12/10 00:08:33;;;;;;;63.72;30.85;;;;;;;;;;1049526;28;20048;-68
2023/12/10 00:09:03;;;;;;;67.78;30.75;;;;;;;;;;1048536;28;20044;-68
2023/12/10 00:09:34;;;;;;;67.55;31.42;;;;;;;;;;1049943;28;20033;-68
2023/12/10 00:10:05;;;;;;;61.80;31.10;;;;;;;;;;1049546;28;20050;-68
2023/12/10 00:10:36;;;;;;;66.65;32.30;;;;;;;;;;1050699;28;20046;-69
2023/12/10 00:11:06;;;;;;;69.40;31.45;;;;;;;;;;1048085;28;20051;-68
2023/12/10 00:11:37;;;;;;;69.85;32.00;;;;;;;;;;1051115;28;20040;-68
2023/12/10 00:12:07;;;;;;;67.18;32.78;;;;;;;;;;1048039;28;20079;-68
2023/12/10 00:12:39;;;;;;;57.53;30.48;;;;;;;;;;1050549;28;20040;-68
2023/12/10 00:13:09;;;;;;;64.13;30.98;;;;;;;;;;1049237;28;20044;-68
2023/12/10 00:13:40;;;;;;;62.03;30.55;;;;;;;;;;1051629;28;20044;-68
2023/12/10 00:14:11;;;;;;;67.65;31.85;;;;;;;;;;1048790;28;20499;-68
2023/12/10 00:14:41;;;;;;;67.68;31.77;;;;;;;;;;1049571;28;20058;-69
2023/12/10 00:15:12;;;;;;;63.20;30.48;;;;;;;;;;1041920;28;20056;-69
2023/12/10 00:15:42;;;;;;;64.63;31.13;;;;;;;;;;1043572;28;20049;-68
2023/12/10 00:16:13;;;;;;;69.75;32.47;;;;;;;;;;1045925;28;20037;-69
2023/12/10 00:16:43;;;;;;;64.47;30.35;;;;;;;;;;1045460;28;20051;-68
2023/12/10 00:17:14;;;;;;;65.10;31.73;;;;;;;;;;1047495;28;20151;-68
2023/12/10 00:17:45;;;;;;;73.00;34.35;;;;;;;;;;1047365;28;20412;-68
2023/12/10 00:18:15;;;;;;;66.68;31.13;;;;;;;;;;1048622;28;20078;-69
2023/12/10 00:18:46;;;;;;;61.97;32.30;;;;;;;;;;1050000;28;20044;-69
2023/12/10 00:19:16;;;;;;;66.22;31.02;;;;;;;;;;1050993;28;20044;-68
2023/12/10 00:19:47;;;;;;;63.00;31.95;;;;;;;;;;1047971;28;20044;-69
2023/12/10 00:20:17;;;;;;;63.33;31.88;;;;;;;;;;1047378;28;20166;-68
2023/12/10 00:20:48;;;;;;;58.90;30.52;;;;;;;;;;1048987;28;20810;-68
2023/12/10 00:21:19;;;;;;;64.85;32.25;;;;;;;;;;1050680;28;20134;-68
2023/12/10 00:21:50;;;;;;;71.57;32.50;;;;;;;;;;1047843;28;20133;-68
2023/12/10 00:22:20;;;;;;;60.40;30.75;;;;;;;;;;1045849;28;20052;-68
2023/12/10 00:22:51;;;;;;;62.78;30.80;;;;;;;;;;1046296;28;20566;-69
2023/12/10 00:23:21;;;;;;;63.67;30.60;;;;;;;;;;1046481;28;20081;-68
2023/12/10 00:23:52;;;;;;;56.75;29.02;;;;;;;;;;1047420;28;20036;-68
2023/12/10 00:24:23;;;;;;;62.05;31.67;;;;;;;;;;1049776;28;20760;-68
2023/12/10 00:24:53;;;;;;;64.35;31.58;;;;;;;;;;1050085;28;20472;-68
2023/12/10 00:25:26;;;;;;;68.00;32.03;;;;;;;;;;1050597;28;20048;-68
2023/12/10 00:25:57;;;;;;;65.95;31.65;;;;;;;;;;1050053;28;20036;-68
2023/12/10 00:26:27;;;;;;;60.08;29.73;;;;;;;;;;1049350;28;20044;-69
2023/12/10 00:26:58;;;;;;;67.07;32.40;;;;;;;;;;1049755;28;20040;-69
2023/12/10 00:27:28;;;;;;;67.85;32.35;;;;;;;;;;1049385;28;20115;-68
2023/12/10 00:27:59;;;;;;;64.47;31.35;;;;;;;;;;1049939;28;20043;-68
2023/12/10 00:28:29;;;;;;;66.47;32.58;;;;;;;;;;1048123;28;20051;-68
2023/12/10 00:29:00;;;;;;;66.85;32.65;;;;;;;;;;1049533;28;20048;-68
2023/12/10 00:29:31;;;;;;;67.97;31.13;;;;;;;;;;1051073;28;20729;-68
2023/12/10 00:30:03;;;;;;;63.20;31.55;;;;;;;;;;1049211;28;20483;-69
2023/12/10 00:30:33;;;;;;;66.18;32.08;;;;;;;;;;1049249;28;20057;-68
2023/12/10 00:31:10;;;;;;;68.55;33.90;;;;;;;;;;1050271;28;20046;-68
2023/12/10 00:31:44;;;;;;;65.07;31.80;;;;;;;;;;1050521;28;20032;-68
2023/12/10 00:32:15;;;;;;;57.63;30.33;;;;;;;;;;1043361;28;20052;-68
2023/12/10 00:32:45;;;;;;;60.22;31.27;;;;;;;;;;1046850;28;20047;-68
2023/12/10 00:33:16;;;;;;;62.47;31.80;;;;;;;;;;1047356;28;20046;-68
2023/12/10 00:33:47;;;;;;;72.18;32.92;;;;;;;;;;1046436;28;20447;-68
2023/12/10 00:34:18;;;;;;;66.15;32.75;;;;;;;;;;1051087;28;22607;-68
2023/12/10 00:34:48;;;;;;;71.75;32.20;;;;;;;;;;1048011;28;20461;-69
2023/12/10 00:35:19;;;;;;;63.10;32.05;;;;;;;;;;1049657;28;20040;-69
2023/12/10 00:35:49;;;;;;;69.70;33.53;;;;;;;;;;1049196;28;20922;-68
2023/12/10 00:36:20;;;;;;;63.70;31.50;;;;;;;;;;1049264;28;20043;-68
2023/12/10 00:36:51;;;;;;;60.88;31.67;;;;;;;;;;1048246;28;20044;-68
2023/12/10 00:37:21;;;;;;;76.78;35.42;;;;;;;;;;1046398;28;20059;-68
2023/12/10 00:37:52;;;;;;;66.88;33.35;;;;;;;;;;1049392;28;20105;-68
2023/12/10 00:38:22;;;;;;;78.63;32.03;;;;;;;;;;1050940;28;20126;-68
2023/12/10 00:38:55;;;;;;;60.90;30.75;;;;;;;;;;1049389;28;20122;-69
2023/12/10 00:39:25;;;;;;;69.55;32.67;;;;;;;;;;1048021;28;20511;-68
2023/12/10 00:39:56;;;;;;;66.65;32.85;;;;;;;;;;1049704;28;20477;-68
2023/12/10 00:40:27;;;;;;;78.38;35.10;;;;;;;;;;1050742;28;20056;-68
2023/12/10 00:40:57;;;;;;;64.68;33.17;;;;;;;;;;1049594;28;20044;-69
2023/12/10 00:41:28;;;;;;;73.78;34.17;;;;;;;;;;1049423;28;20036;-69
2023/12/10 00:41:58;;;;;;;69.55;32.65;;;;;;;;;;1050286;28;20047;-67
2023/12/10 00:42:29;;;;;;;70.88;33.67;;;;;;;;;;1049634;28;20139;-69
2023/12/10 00:42:59;;;;;;;69.38;34.13;;;;;;;;;;1049100;28;20416;-68
2023/12/10 00:43:30;;;;;;;67.90;33.35;;;;;;;;;;1049488;28;20051;-68
2023/12/10 00:44:03;;;;;;;68.63;32.08;;;;;;;;;;1050602;28;20063;-69
2023/12/10 00:44:33;;;;;;;70.32;34.45;;;;;;;;;;1048994;28;20626;-69
2023/12/10 00:45:04;;;;;;;73.82;34.30;;;;;;;;;;1049672;28;20054;-69
2023/12/10 00:45:35;;;;;;;75.28;33.80;;;;;;;;;;1051169;28;20067;-68
2023/12/10 00:46:06;;;;;;;68.90;33.88;;;;;;;;;;1050079;28;20050;-67
2023/12/10 00:46:37;;;;;;;70.40;33.63;;;;;;;;;;1048819;28;20093;-68
2023/12/10 00:47:07;;;;;;;72.45;33.47;;;;;;;;;;1050545;28;20044;-69
2023/12/10 00:47:38;;;;;;;70.20;34.33;;;;;;;;;;1049552;28;20036;-69
2023/12/10 00:48:10;;;;;;;74.32;35.00;;;;;;;;;;1049600;28;20052;-68
2023/12/10 00:48:40;;;;;;;69.35;33.75;;;;;;;;;;1049587;28;20036;-68
2023/12/10 00:49:11;;;;;;;65.50;34.28;;;;;;;;;;1049739;28;20071;-68
2023/12/10 00:49:41;;;;;;;67.30;33.10;;;;;;;;;;1049518;28;20079;-68
2023/12/10 00:50:12;;;;;;;73.45;34.65;;;;;;;;;;1049937;28;20043;-68
2023/12/10 00:50:43;;;;;;;76.50;35.65;;;;;;;;;;1047576;28;20051;-68
2023/12/10 00:51:20;;;;;;;64.07;32.22;;;;;;;;;;1048899;28;20125;-68
2023/12/10 00:51:51;;;;;;;72.18;33.70;;;;;;;;;;1048135;28;20073;-68
2023/12/10 00:52:21;;;;;;;74.07;33.38;;;;;;;;;;1049120;28;20044;-68
2023/12/10 00:52:52;;;;;;;69.60;33.70;;;;;;;;;;1050156;28;20066;-68
2023/12/10 00:53:23;;;;;;;64.72;32.03;;;;;;;;;;1048243;28;20079;-68
2023/12/10 00:53:54;;;;;;;61.38;32.80;;;;;;;;;;1049156;28;20041;-68
2023/12/10 00:54:25;;;;;;;66.05;33.88;;;;;;;;;;1049006;28;20040;-69
2023/12/10 00:54:55;;;;;;;72.13;33.38;;;;;;;;;;1047925;28;20044;-69
2023/12/10 00:55:26;;;;;;;76.65;34.53;;;;;;;;;;1046712;28;20048;-69
2023/12/10 00:55:56;;;;;;;64.32;32.05;;;;;;;;;;1045193;28;20052;-68
2023/12/10 00:56:27;;;;;;;64.03;31.52;;;;;;;;;;1045925;28;20382;-68
2023/12/10 00:56:58;;;;;;;62.47;31.90;;;;;;;;;;1048297;28;20048;-69
2023/12/10 00:57:28;;;;;;;69.18;32.20;;;;;;;;;;1050156;28;20082;-68
2023/12/10 00:57:59;;;;;;;66.65;33.25;;;;;;;;;;1048661;28;20101;-68
2023/12/10 00:58:29;;;;;;;67.85;31.30;;;;;;;;;;1049879;28;20041;-68
2023/12/10 00:59:00;;;;;;;68.40;33.45;;;;;;;;;;1049929;28;20036;-68
2023/12/10 00:59:31;;;;;;;68.60;32.67;;;;;;;;;;1050992;28;20072;-69
2023/12/10 01:00:04;;;;;;;69.03;32.17;;;;;;;;;;1047392;28;20086;-68
2023/12/10 01:00:35;;;;;;;68.85;33.30;;;;;;;;;;1048428;28;20045;-69
2023/12/10 01:01:06;;;;;;;72.85;33.50;;;;;;;;;;1049452;28;20177;-68
2023/12/10 01:01:36;;;;;;;65.40;31.92;;;;;;;;;;1050358;28;20123;-69
2023/12/10 01:02:07;;;;;;;69.60;32.67;;;;;;;;;;1048332;28;20196;-68
2023/12/10 01:02:38;;;;;;;72.55;32.45;;;;;;;;;;1049409;28;20551;-68
2023/12/10 01:03:08;;;;;;;67.25;32.03;;;;;;;;;;1050241;28;20051;-68
2023/12/10 01:03:39;;;;;;;71.10;33.90;;;;;;;;;;1050248;28;20048;-69
2023/12/10 01:04:09;;;;;;;66.68;30.75;;;;;;;;;;1048768;28;20668;-67
2023/12/10 01:04:41;;;;;;;71.82;32.92;;;;;;;;;;1049828;28;20380;-69
2023/12/10 01:05:11;;;;;;;62.63;31.70;;;;;;;;;;1048720;28;20146;-68
2023/12/10 01:05:42;;;;;;;69.47;33.65;;;;;;;;;;1048588;28;20040;-68
2023/12/10 01:06:13;;;;;;;62.42;32.38;;;;;;;;;;1049771;28;20052;-69
2023/12/10 01:06:43;;;;;;;63.80;31.35;;;;;;;;;;1049110;28;20059;-69
2023/12/10 01:07:14;;;;;;;67.38;32.25;;;;;;;;;;1049541;28;20836;-68
2023/12/10 01:07:44;;;;;;;67.30;31.58;;;;;;;;;;1048764;28;20403;-69
2023/12/10 01:08:16;;;;;;;66.75;32.80;;;;;;;;;;1048582;28;20052;-68
2023/12/10 01:08:47;;;;;;;73.50;33.20;;;;;;;;;;1049137;28;20052;-68
2023/12/10 01:09:17;;;;;;;68.20;32.30;;;;;;;;;;1049864;28;20040;-69
2023/12/10 01:09:48;;;;;;;66.30;31.15;;;;;;;;;;1047984;28;20054;-68
2023/12/10 01:10:19;;;;;;;61.35;30.85;;;;;;;;;;1049469;28;20043;-68
2023/12/10 01:10:50;;;;;;;65.50;31.50;;;;;;;;;;1050141;28;20037;-68
2023/12/10 01:11:20;;;;;;;66.95;31.35;;;;;;;;;;1050677;28;20448;-68
2023/12/10 01:11:51;;;;;;;62.35;31.95;;;;;;;;;;1049630;28;20869;-68
2023/12/10 01:12:21;;;;;;;64.55;29.95;;;;;;;;;;1048590;28;20040;-68
2023/12/10 01:12:52;;;;;;;65.57;30.75;;;;;;;;;;1048105;28;20064;-68
2023/12/10 01:13:24;;;;;;;65.95;29.85;;;;;;;;;;1049180;28;20047;-68
2023/12/10 01:13:54;;;;;;;59.13;29.85;;;;;;;;;;1049304;28;20048;-69
2023/12/10 01:14:25;;;;;;;68.75;30.55;;;;;;;;;;1049701;28;20039;-68
2023/12/10 01:14:56;;;;;;;60.78;30.80;;;;;;;;;;1049786;28;20048;-68
2023/12/10 01:15:29;;;;;;;58.45;31.13;;;;;;;;;;1049659;28;20047;-68
2023/12/10 01:16:00;;;;;;;65.43;29.30;;;;;;;;;;1050499;28;20043;-68
2023/12/10 01:16:31;;;;;;;62.67;32.33;;;;;;;;;;1049609;28;20054;-68
2023/12/10 01:17:01;;;;;;;63.83;30.27;;;;;;;;;;1050823;28;20109;-68
2023/12/10 01:17:32;;;;;;;64.55;31.40;;;;;;;;;;1050437;28;20036;-68
2023/12/10 01:18:03;;;;;;;60.85;30.08;;;;;;;;;;1049630;28;20135;-68
2023/12/10 01:18:36;;;;;;;65.55;29.80;;;;;;;;;;1049957;28;20101;-68
2023/12/10 01:19:07;;;;;;;60.72;29.90;;;;;;;;;;1050207;28;20047;-68
2023/12/10 01:19:38;;;;;;;60.15;29.90;;;;;;;;;;1050923;28;20047;-68
2023/12/10 01:20:09;;;;;;;61.92;30.15;;;;;;;;;;1048265;28;20060;-68
2023/12/10 01:20:40;;;;;;;60.05;29.63;;;;;;;;;;1050758;28;20058;-68
2023/12/10 01:21:11;;;;;;;61.10;29.77;;;;;;;;;;1049219;28;20048;-68
2023/12/10 01:21:47;;;;;;;67.32;30.90;;;;;;;;;;827930;28;10000812;-68
2023/12/10 01:22:17;;;;;;;62.97;31.23;;;;;;;;;;1048901;28;20395;-68
2023/12/10 01:22:48;;;;;;;63.33;29.20;;;;;;;;;;1050285;28;20075;-69
2023/12/10 01:23:18;;;;;;;61.90;30.05;;;;;;;;;;1049677;28;20036;-68
2023/12/10 01:23:50;;;;;;;61.70;30.88;;;;;;;;;;1050175;28;20051;-68
2023/12/10 01:24:21;;;;;;;61.58;30.10;;;;;;;;;;1049987;28;20173;-68
2023/12/10 01:24:52;;;;;;;69.10;30.55;;;;;;;;;;1049580;28;20089;-68
2023/12/10 01:25:24;;;;;;;60.03;29.75;;;;;;;;;;1049908;28;20135;-68
2023/12/10 01:25:54;;;;;;;61.72;29.48;;;;;;;;;;1049284;28;20052;-68
2023/12/10 01:26:25;;;;;;;63.25;29.65;;;;;;;;;;1048357;28;20068;-68
2023/12/10 01:26:55;;;;;;;66.32;30.48;;;;;;;;;;1049149;28;20110;-68
2023/12/10 01:27:26;;;;;;;62.15;29.55;;;;;;;;;;1049576;28;20043;-67
2023/12/10 01:27:57;;;;;;;63.35;32.25;;;;;;;;;;1048715;28;20036;-69
2023/12/10 01:28:27;;;;;;;63.20;28.95;;;;;;;;;;1049032;28;20431;-68
2023/12/10 01:28:58;;;;;;;67.38;32.10;;;;;;;;;;1050264;28;20479;-68
2023/12/10 01:29:29;;;;;;;60.08;30.33;;;;;;;;;;1050006;28;20089;-68
2023/12/10 01:29:59;;;;;;;59.72;28.98;;;;;;;;;;1048642;28;20040;-67
2023/12/10 01:30:30;;;;;;;62.17;29.00;;;;;;;;;;1050550;28;20040;-68
2023/12/10 01:31:00;;;;;;;64.47;29.00;;;;;;;;;;1048171;28;20044;-68
2023/12/10 01:31:35;;;;;;;71.35;30.27;;;;;;;;;;1050740;28;20097;-68
2023/12/10 01:32:06;;;;;;;65.10;28.27;;;;;;;;;;1049536;28;20047;-68
2023/12/10 01:32:36;;;;;;;65.75;30.13;;;;;;;;;;1050388;28;20047;-68
2023/12/10 01:33:07;;;;;;;64.65;29.45;;;;;;;;;;1049953;28;20052;-68
2023/12/10 01:33:37;;;;;;;62.65;29.73;;;;;;;;;;1051033;28;20148;-69
2023/12/10 01:34:08;;;;;;;61.42;28.48;;;;;;;;;;1049270;28;20048;-68
2023/12/10 01:34:41;;;;;;;63.55;27.75;;;;;;;;;;1051029;28;20036;-68
2023/12/10 01:35:12;;;;;;;60.40;28.15;;;;;;;;;;1044165;28;20131;-68
2023/12/10 01:35:42;;;;;;;64.18;29.23;;;;;;;;;;1041482;28;20049;-68
2023/12/10 01:36:23;;;;;;;60.72;29.92;;;;;;;;;;1048364;28;20064;-68
2023/12/10 01:36:54;;;;;;;59.17;28.25;;;;;;;;;;1049410;28;20052;-68
2023/12/10 01:37:24;;;;;;;64.15;28.65;;;;;;;;;;1050612;28;20040;-68
2023/12/10 01:37:55;;;;;;;60.08;29.38;;;;;;;;;;1049025;28;20036;-68
2023/12/10 01:38:26;;;;;;;66.57;30.08;;;;;;;;;;1050723;28;20115;-68
2023/12/10 01:38:57;;;;;;;58.83;28.35;;;;;;;;;;1049285;28;20040;-68
2023/12/10 01:39:27;;;;;;;56.47;28.48;;;;;;;;;;1050863;28;20103;-68
2023/12/10 01:39:58;;;;;;;58.00;29.00;;;;;;;;;;1050285;28;20443;-68
2023/12/10 01:40:28;;;;;;;58.00;27.90;;;;;;;;;;1049893;28;20035;-68
2023/12/10 01:40:59;;;;;;;61.22;29.75;;;;;;;;;;1049587;28;20272;-68
2023/12/10 01:41:29;;;;;;;63.10;28.20;;;;;;;;;;1050748;28;20044;-68
2023/12/10 01:42:00;;;;;;;58.78;28.73;;;;;;;;;;1050196;28;20036;-68
2023/12/10 01:42:33;;;;;;;64.75;29.83;;;;;;;;;;1050857;28;20047;-68
2023/12/10 01:43:07;;;;;;;53.05;27.42;;;;;;;;;;1049357;28;20058;-68
2023/12/10 01:43:38;;;;;;;61.75;28.15;;;;;;;;;;1050314;28;20072;-68
2023/12/10 01:44:09;;;;;;;58.58;28.83;;;;;;;;;;1048966;28;20044;-68
2023/12/10 01:44:40;;;;;;;59.85;29.02;;;;;;;;;;1050987;28;20079;-69
2023/12/10 01:45:11;;;;;;;58.30;28.55;;;;;;;;;;1049938;28;20043;-68
2023/12/10 01:45:42;;;;;;;58.08;27.67;;;;;;;;;;1049674;28;20040;-68
2023/12/10 01:46:13;;;;;;;55.65;28.60;;;;;;;;;;1050006;28;20085;-68
2023/12/10 01:46:45;;;;;;;54.58;27.08;;;;;;;;;;1048915;28;20052;-68
2023/12/10 01:47:18;;;;;;;63.88;29.52;;;;;;;;;;1050701;28;20131;-68
2023/12/10 01:47:49;;;;;;;62.72;28.13;;;;;;;;;;1048718;28;20063;-68
2023/12/10 01:48:23;;;;;;;56.60;28.67;;;;;;;;;;1049769;28;20119;-68
2023/12/10 01:48:55;;;;;;;50.95;28.08;;;;;;;;;;1047584;28;20044;-68
2023/12/10 01:49:28;;;;;;;58.17;28.08;;;;;;;;;;1046879;28;20056;-68
2023/12/10 01:49:59;;;;;;;58.90;26.50;;;;;;;;;;1047909;28;20044;-69
2023/12/10 01:50:33;;;;;;;60.97;27.73;;;;;;;;;;1048541;28;20069;-68
2023/12/10 01:51:05;;;;;;;56.60;26.70;;;;;;;;;;1047621;28;20243;-69
2023/12/10 01:51:36;;;;;;;59.03;27.70;;;;;;;;;;1049337;28;20037;-68
2023/12/10 01:52:07;;;;;;;62.42;27.77;;;;;;;;;;1050029;28;20446;-68
2023/12/10 01:52:47;;;;;;;55.90;27.42;;;;;;;;;;1047837;28;20054;-68
2023/12/10 01:53:18;;;;;;;63.58;28.10;;;;;;;;;;1045008;28;20055;-68
2023/12/10 01:53:49;;;;;;;55.85;27.15;;;;;;;;;;1044237;28;20107;-68
2023/12/10 01:54:24;;;;;;;57.38;27.20;;;;;;;;;;1044243;28;20041;-67
2023/12/10 01:54:55;;;;;;;54.75;27.17;;;;;;;;;;1047152;28;20049;-68
2023/12/10 01:55:25;;;;;;;55.13;27.17;;;;;;;;;;1049720;28;20123;-68
2023/12/10 01:55:57;;;;;;;58.70;26.17;;;;;;;;;;1047695;28;20048;-68
2023/12/10 01:56:29;;;;;;;54.80;26.38;;;;;;;;;;1049778;28;20625;-68
2023/12/10 01:57:00;;;;;;;66.40;29.42;;;;;;;;;;1050641;28;20135;-68
2023/12/10 01:57:33;;;;;;;62.13;26.95;;;;;;;;;;1048649;28;20058;-68
2023/12/10 01:58:06;;;;;;;54.08;27.20;;;;;;;;;;1047594;28;20052;-68
2023/12/10 01:58:38;;;;;;;59.20;27.65;;;;;;;;;;1047923;28;20049;-69
2023/12/10 01:59:09;;;;;;;52.58;26.48;;;;;;;;;;1048727;28;20040;-68
2023/12/10 01:59:39;;;;;;;60.88;26.60;;;;;;;;;;1048633;28;20087;-68
2023/12/10 02:00:10;;;;;;;57.80;26.83;;;;;;;;;;1049705;28;20097;-68
2023/12/10 02:00:41;;;;;;;51.28;28.23;;;;;;;;;;1047569;28;20054;-68
2023/12/10 02:01:12;;;;;;;61.92;26.80;;;;;;;;;;1044280;28;20051;-68
2023/12/10 02:01:43;;;;;;;62.63;27.85;;;;;;;;;;1042772;28;20792;-68
2023/12/10 02:02:14;;;;;;;57.15;26.63;;;;;;;;;;1043475;28;20059;-68
2023/12/10 02:02:45;;;;;;;59.45;27.13;;;;;;;;;;1044783;28;20119;-68
2023/12/10 02:03:15;;;;;;;56.55;28.20;;;;;;;;;;1047808;28;20125;-69
2023/12/10 02:03:46;;;;;;;61.58;28.02;;;;;;;;;;1047590;28;20089;-69
2023/12/10 02:04:18;;;;;;;56.80;25.73;;;;;;;;;;1044112;28;20043;-68
2023/12/10 02:04:51;;;;;;;54.13;27.08;;;;;;;;;;1046179;28;20842;-68
2023/12/10 02:05:23;;;;;;;51.85;26.40;;;;;;;;;;1050251;28;20043;-68
2023/12/10 02:05:54;;;;;;;56.90;27.88;;;;;;;;;;1050286;28;20089;-68
2023/12/10 02:06:25;;;;;;;55.95;25.70;;;;;;;;;;1050503;28;20117;-69
2023/12/10 02:06:55;;;;;;;53.20;25.67;;;;;;;;;;1049674;28;20048;-68
2023/12/10 02:07:27;;;;;;;57.35;26.60;;;;;;;;;;1050034;28;20522;-68
2023/12/10 02:07:58;;;;;;;59.13;26.92;;;;;;;;;;1048869;28;20470;-68
2023/12/10 02:08:29;;;;;;;57.85;25.92;;;;;;;;;;1050263;28;20407;-68
2023/12/10 02:08:59;;;;;;;53.30;26.38;;;;;;;;;;1049323;28;20051;-68
2023/12/10 02:09:30;;;;;;;56.85;25.92;;;;;;;;;;1049925;28;20082;-68
2023/12/10 02:10:01;;;;;;;63.20;28.00;;;;;;;;;;1049299;28;20044;-68
2023/12/10 02:10:31;;;;;;;59.28;27.85;;;;;;;;;;1047010;28;20068;-68
2023/12/10 02:11:02;;;;;;;56.35;25.67;;;;;;;;;;1048774;28;20044;-68
2023/12/10 02:11:32;;;;;;;59.03;27.67;;;;;;;;;;1051108;28;20044;-69
2023/12/10 02:12:04;;;;;;;59.13;26.23;;;;;;;;;;1049216;28;20051;-68
2023/12/10 02:12:35;;;;;;;56.72;26.40;;;;;;;;;;1050216;28;20147;-68
2023/12/10 02:13:06;;;;;;;54.17;26.10;;;;;;;;;;1048538;28;20047;-68
2023/12/10 02:13:37;;;;;;;59.35;27.40;;;;;;;;;;1050691;28;20058;-69
2023/12/10 02:14:07;;;;;;;54.15;27.58;;;;;;;;;;1050258;28;20428;-68
2023/12/10 02:14:39;;;;;;;53.88;25.95;;;;;;;;;;1049355;28;20055;-68
2023/12/10 02:15:17;;;;;;;54.30;25.88;;;;;;;;;;1049787;28;20683;-68
2023/12/10 02:15:47;;;;;;;56.17;25.67;;;;;;;;;;1050224;28;20047;-68
2023/12/10 02:16:18;;;;;;;52.42;25.15;;;;;;;;;;1050292;28;20044;-68
2023/12/10 02:16:48;;;;;;;53.97;26.23;;;;;;;;;;1049594;28;20133;-69
2023/12/10 02:17:19;;;;;;;53.05;24.92;;;;;;;;;;1050032;28;20049;-68
2023/12/10 02:17:50;;;;;;;52.90;26.08;;;;;;;;;;1048808;28;20131;-68
2023/12/10 02:18:20;;;;;;;55.35;26.23;;;;;;;;;;1050177;28;20044;-68
2023/12/10 02:18:51;;;;;;;56.60;27.20;;;;;;;;;;1048473;28;20067;-69
2023/12/10 02:19:21;;;;;;;61.50;27.25;;;;;;;;;;1050623;28;20048;-68
2023/12/10 02:19:52;;;;;;;57.30;27.55;;;;;;;;;;1050497;28;20043;-68
2023/12/10 02:20:22;;;;;;;51.13;26.75;;;;;;;;;;1049966;28;20083;-68
2023/12/10 02:20:54;;;;;;;53.17;25.10;;;;;;;;;;1049237;28;20703;-68
2023/12/10 02:21:26;;;;;;;53.38;26.67;;;;;;;;;;1050476;28;20090;-68
2023/12/10 02:21:58;;;;;;;48.45;25.60;;;;;;;;;;1050017;28;20119;-68
2023/12/10 02:22:29;;;;;;;56.00;26.02;;;;;;;;;;1050274;28;20047;-68
2023/12/10 02:23:04;;;;;;;55.65;25.25;;;;;;;;;;1047978;28;20168;-69
2023/12/10 02:23:46;;;;;;;55.78;25.77;;;;;;;;;;1050353;28;20036;-68
2023/12/10 02:24:25;;;;;;;54.75;25.35;;;;;;;;;;1048522;28;20044;-68
2023/12/10 02:25:01;;;;;;;54.63;24.02;;;;;;;;;;1050852;28;20032;-68
2023/12/10 02:25:34;;;;;;;55.90;24.02;;;;;;;;;;1048217;28;20052;-68
2023/12/10 02:26:04;;;;;;;51.10;24.13;;;;;;;;;;1047887;28;20071;-68
2023/12/10 02:26:36;;;;;;;52.75;24.90;;;;;;;;;;1047049;28;20050;-68
2023/12/10 02:27:07;;;;;;;54.15;24.70;;;;;;;;;;1048113;28;20048;-69
2023/12/10 02:27:37;;;;;;;53.75;26.00;;;;;;;;;;1048204;28;20041;-68
2023/12/10 02:28:09;;;;;;;53.65;24.23;;;;;;;;;;1048674;28;20135;-68
2023/12/10 02:28:40;;;;;;;55.03;26.55;;;;;;;;;;1049821;28;20488;-68
2023/12/10 02:29:10;;;;;;;55.28;26.05;;;;;;;;;;1050436;28;20464;-69
2023/12/10 02:29:41;;;;;;;51.67;24.92;;;;;;;;;;1048344;28;20113;-68
2023/12/10 02:30:13;;;;;;;50.75;24.90;;;;;;;;;;1048846;28;20048;-68
2023/12/10 02:30:44;;;;;;;49.97;24.67;;;;;;;;;;1047146;28;20044;-68
2023/12/10 02:31:14;;;;;;;51.10;24.73;;;;;;;;;;1050323;28;20048;-68
2023/12/10 02:31:45;;;;;;;53.88;25.67;;;;;;;;;;1049077;28;20054;-68
2023/12/10 02:32:16;;;;;;;63.30;26.00;;;;;;;;;;1050477;28;20032;-68
2023/12/10 02:32:47;;;;;;;53.50;24.83;;;;;;;;;;1047473;28;20052;-68
2023/12/10 02:33:17;;;;;;;57.28;24.45;;;;;;;;;;1049113;28;20036;-68
2023/12/10 02:33:48;;;;;;;58.60;25.48;;;;;;;;;;1047138;28;20115;-69
2023/12/10 02:34:18;;;;;;;56.72;24.38;;;;;;;;;;1049960;28;20044;-68
2023/12/10 02:34:49;;;;;;;57.03;26.63;;;;;;;;;;1049720;28;20115;-68
2023/12/10 02:35:19;;;;;;;52.05;23.27;;;;;;;;;;1045559;28;20120;-68
2023/12/10 02:35:50;;;;;;;50.28;23.85;;;;;;;;;;1049732;28;22408;-68
2023/12/10 02:36:21;;;;;;;55.40;25.60;;;;;;;;;;1049015;28;20043;-68
2023/12/10 02:36:52;;;;;;;52.70;24.45;;;;;;;;;;1048636;28;20048;-69
2023/12/10 02:37:22;;;;;;;51.63;25.13;;;;;;;;;;1050592;28;20127;-68
2023/12/10 02:37:53;;;;;;;51.13;25.50;;;;;;;;;;1048341;28;20764;-68
2023/12/10 02:38:23;;;;;;;50.80;24.05;;;;;;;;;;1049534;28;20048;-68
2023/12/10 02:38:54;;;;;;;48.80;24.35;;;;;;;;;;1050243;28;20051;-68
2023/12/10 02:39:25;;;;;;;53.55;25.35;;;;;;;;;;1050480;28;20039;-68
2023/12/10 02:39:55;;;;;;;49.80;23.17;;;;;;;;;;1047834;28;20059;-68
2023/12/10 02:40:26;;;;;;;47.72;24.50;;;;;;;;;;1049332;28;20724;-68
2023/12/10 02:40:56;;;;;;;50.35;24.58;;;;;;;;;;1048879;28;20056;-69
2023/12/10 02:41:27;;;;;;;53.35;24.60;;;;;;;;;;1050104;28;20091;-68
2023/12/10 02:41:57;;;;;;;49.58;23.05;;;;;;;;;;1050213;28;20086;-68
2023/12/10 02:42:28;;;;;;;51.08;23.20;;;;;;;;;;1050446;28;20129;-68
2023/12/10 02:43:00;;;;;;;47.47;23.33;;;;;;;;;;1049673;28;20480;-68
2023/12/10 02:43:31;;;;;;;54.45;25.20;;;;;;;;;;1050581;28;20036;-68
2023/12/10 02:44:01;;;;;;;49.95;23.40;;;;;;;;;;1049694;28;20055;-68
2023/12/10 02:44:32;;;;;;;51.38;22.90;;;;;;;;;;1050116;28;20451;-68
2023/12/10 02:45:03;;;;;;;52.75;23.60;;;;;;;;;;1049846;28;20066;-68
2023/12/10 02:45:33;;;;;;;48.08;23.88;;;;;;;;;;1050252;28;20041;-69
2023/12/10 02:46:04;;;;;;;51.22;24.33;;;;;;;;;;1049748;28;20052;-68
2023/12/10 02:46:35;;;;;;;46.88;23.55;;;;;;;;;;1048886;28;20040;-68
2023/12/10 02:47:06;;;;;;;50.72;24.02;;;;;;;;;;1049148;28;20130;-68
2023/12/10 02:47:36;;;;;;;48.33;22.88;;;;;;;;;;1050628;28;20036;-68
2023/12/10 02:48:07;;;;;;;47.85;22.98;;;;;;;;;;1049292;28;20047;-68
2023/12/10 02:48:37;;;;;;;49.60;24.02;;;;;;;;;;1050299;28;20404;-68
2023/12/10 02:49:08;;;;;;;48.60;23.02;;;;;;;;;;1050006;28;20055;-68
2023/12/10 02:49:39;;;;;;;57.83;26.65;;;;;;;;;;1050875;28;20058;-68
2023/12/10 02:50:10;;;;;;;47.78;24.38;;;;;;;;;;1050107;28;20072;-68
2023/12/10 02:50:40;;;;;;;51.80;24.48;;;;;;;;;;1049053;28;20040;-68
2023/12/10 02:51:11;;;;;;;54.22;24.02;;;;;;;;;;1049656;28;20051;-68
2023/12/10 02:51:42;;;;;;;54.13;23.65;;;;;;;;;;1049542;28;20052;-68
2023/12/10 02:52:12;;;;;;;46.45;22.67;;;;;;;;;;1049900;28;20763;-68
2023/12/10 02:52:43;;;;;;;51.00;24.13;;;;;;;;;;1049220;28;20032;-68
2023/12/10 02:53:14;;;;;;;48.10;22.13;;;;;;;;;;1049993;28;20048;-69
2023/12/10 02:53:44;;;;;;;47.00;21.92;;;;;;;;;;1049389;28;20143;-68
2023/12/10 02:54:15;;;;;;;42.45;23.33;;;;;;;;;;1050510;28;20044;-68
2023/12/10 02:54:45;;;;;;;47.33;22.77;;;;;;;;;;1048784;28;20041;-68
2023/12/10 02:55:16;;;;;;;47.58;22.23;;;;;;;;;;1050027;28;20126;-68
2023/12/10 02:55:47;;;;;;;48.53;23.95;;;;;;;;;;1049139;28;20411;-68
2023/12/10 02:56:18;;;;;;;48.83;23.08;;;;;;;;;;1049727;28;20586;-68
2023/12/10 02:56:48;;;;;;;49.90;24.73;;;;;;;;;;1046589;28;20453;-68
2023/12/10 02:57:19;;;;;;;50.47;23.92;;;;;;;;;;1050415;28;20480;-68
2023/12/10 02:57:49;;;;;;;51.60;23.00;;;;;;;;;;1048589;28;20136;-69
2023/12/10 02:58:20;;;;;;;51.22;23.52;;;;;;;;;;1049353;28;20051;-68
2023/12/10 02:58:51;;;;;;;49.72;23.23;;;;;;;;;;1049510;28;20468;-68
2023/12/10 02:59:21;;;;;;;48.83;22.90;;;;;;;;;;1051127;28;20129;-68
2023/12/10 02:59:52;;;;;;;53.42;22.05;;;;;;;;;;1048205;28;20055;-68
2023/12/10 03:00:22;;;;;;;55.88;22.77;;;;;;;;;;1048925;28;20044;-68
2023/12/10 03:00:53;;;;;;;46.20;23.80;;;;;;;;;;1049819;28;20135;-68
2023/12/10 03:01:24;;;;;;;48.33;23.10;;;;;;;;;;1048857;28;20049;-68